Time;durP1;ratioP1;P1;durP2;ratioP2;P2;SDS_P1;SDS_P2;PMS_P1;PMS_P2;Temp;Humidity;BMP_temperature;BMP_pressure;BME280_temperature;BME280_humidity;BME280_pressure;Samples;Min_cycle;Max_cycle;Signal;HPM_P1;HPM_P2
2022/04/20 00:00:27;;;;;;;;;;;;;;;18.15;58.13;98229.56;2085933;28;19921;-52
2022/04/20 00:01:27;;;;;;;;;;;;;;;18.14;57.89;98232.47;2085858;28;20000;-50
2022/04/20 00:02:29;;;;;;;;;;;;;;;18.13;58.04;98220.06;2080339;28;19937;-49
2022/04/20 00:03:31;;;;;;;;;;;;;;;18.13;58.13;98220.06;2083484;28;19955;-49
2022/04/20 00:04:33;;;;;;;;;;;;;;;18.12;58.01;98218.44;2087655;28;19920;-50
2022/04/20 00:05:34;;;;;;;;;;;;;;;18.12;57.84;98218.44;2087326;28;21442;-49
2022/04/20 00:06:35;;;;;;;;;;;;;;;18.11;58.01;98220.31;2087304;28;19921;-49
2022/04/20 00:07:36;;;;;;;;;;;;;;;18.12;58.03;98221.94;2088837;28;20011;-51
2022/04/20 00:08:37;;;;;;;;;;;;;;;18.11;58.11;98228.34;2086465;28;19932;-51
2022/04/20 00:09:39;;;;;;;;;;;;;;;18.12;58.00;98231.84;2080658;28;19929;-49
2022/04/20 00:10:39;;;;;;;;;;;;;;;18.12;57.92;98229.19;2082106;28;20275;-49
2022/04/20 00:11:41;;;;;;;;;;;;;;;18.11;57.95;98222.13;2085878;28;19930;-49
2022/04/20 00:12:41;;;;;;;;;;;;;;;18.11;57.85;98227.50;2085981;28;20020;-49
2022/04/20 00:13:43;;;;;;;;;;;;;;;18.10;58.27;98226.69;2083105;28;19931;-51
2022/04/20 00:14:44;;;;;;;;;;;;;;;18.11;58.04;98228.34;2085295;28;20002;-52
2022/04/20 00:15:45;;;;;;;;;;;;;;;18.11;57.75;98228.34;2085001;28;19921;-51
2022/04/20 00:16:47;;;;;;;;;;;;;;;18.12;57.89;98221.13;2084760;28;19920;-52
2022/04/20 00:17:48;;;;;;;;;;;;;;;18.10;57.89;98221.31;2088982;28;19989;-49
2022/04/20 00:18:50;;;;;;;;;;;;;;;18.11;57.79;98217.63;2086555;28;19935;-50
2022/04/20 00:19:52;;;;;;;;;;;;;;;18.10;58.01;98215.94;2087291;28;19982;-51
2022/04/20 00:20:52;;;;;;;;;;;;;;;18.11;57.89;98216.78;2087904;28;19935;-48
2022/04/20 00:21:54;;;;;;;;;;;;;;;18.10;58.04;98226.69;2087091;28;20149;-48
2022/04/20 00:22:55;;;;;;;;;;;;;;;18.08;58.10;98224.22;2084663;28;19920;-50
2022/04/20 00:23:56;;;;;;;;;;;;;;;18.09;57.96;98217.00;2088357;28;19920;-51
2022/04/20 00:24:58;;;;;;;;;;;;;;;18.08;57.81;98218.03;2087781;28;20588;-50
2022/04/20 00:25:58;;;;;;;;;;;;;;;18.09;57.91;98219.69;2089253;28;19920;-48
2022/04/20 00:27:00;;;;;;;;;;;;;;;18.08;58.25;98213.50;2085810;28;20426;-53
2022/04/20 00:28:01;;;;;;;;;;;;;;;18.09;57.95;98215.13;2080420;28;19925;-49
2022/04/20 00:29:02;;;;;;;;;;;;;;;18.11;58.10;98227.50;2082379;28;20550;-49
2022/04/20 00:30:03;;;;;;;;;;;;;;;18.08;57.90;98216.19;2083318;28;19989;-48
2022/04/20 00:31:05;;;;;;;;;;;;;;;18.07;57.89;98225.25;2086352;28;19932;-49
2022/04/20 00:32:06;;;;;;;;;;;;;;;18.09;58.09;98225.06;2086279;28;19931;-50
2022/04/20 00:33:08;;;;;;;;;;;;;;;18.09;58.15;98217.81;2088206;28;19921;-51
2022/04/20 00:34:10;;;;;;;;;;;;;;;18.09;57.90;98215.13;2089159;28;19928;-49
2022/04/20 00:35:11;;;;;;;;;;;;;;;18.07;57.89;98227.13;2089868;28;19921;-50
2022/04/20 00:36:12;;;;;;;;;;;;;;;18.06;57.80;98223.59;2089029;28;19929;-48
2022/04/20 00:37:14;;;;;;;;;;;;;;;18.08;58.27;98223.41;2088085;28;20019;-51
2022/04/20 00:38:16;;;;;;;;;;;;;;;18.06;57.93;98226.28;2086524;28;20529;-48
2022/04/20 00:39:18;;;;;;;;;;;;;;;18.07;57.87;98222.56;2089183;28;19920;-50
2022/04/20 00:40:18;;;;;;;;;;;;;;;18.06;57.98;98228.16;2085580;28;19928;-49
2022/04/20 00:41:21;;;;;;;;;;;;;;;18.05;57.88;98227.34;2085554;28;19932;-49
2022/04/20 00:42:23;;;;;;;;;;;;;;;18.05;57.85;98213.91;2088925;28;19933;-49
2022/04/20 00:43:24;;;;;;;;;;;;;;;18.06;57.92;98225.47;2082337;28;19925;-50
2022/04/20 00:44:26;;;;;;;;;;;;;;;18.05;57.99;98223.81;2085515;28;19932;-48
2022/04/20 00:45:28;;;;;;;;;;;;;;;18.07;57.99;98224.44;2084714;28;19932;-50
2022/04/20 00:46:30;;;;;;;;;;;;;;;18.05;57.99;98223.81;2087644;28;19947;-48
2022/04/20 00:47:32;;;;;;;;;;;;;;;18.05;57.86;98229.16;2089893;28;19924;-51
2022/04/20 00:48:38;;;;;;;;;;;;;;;18.05;58.08;98224.66;2089851;28;20458;-51
2022/04/20 00:49:41;;;;;;;;;;;;;;;18.05;57.75;98227.34;2087245;28;20026;-48
2022/04/20 00:50:42;;;;;;;;;;;;;;;18.06;58.10;98230.84;2085990;28;19965;-49
2022/04/20 00:51:53;;;;;;;;;;;;;;;18.06;57.91;98233.53;2084208;28;19932;-49
2022/04/20 00:52:54;;;;;;;;;;;;;;;18.05;58.06;98230.03;2086205;28;20019;-51
2022/04/20 00:53:58;;;;;;;;;;;;;;;18.05;57.66;98232.69;2081771;28;19939;-48
2022/04/20 00:54:59;;;;;;;;;;;;;;;18.05;58.03;98229.16;2086272;28;19977;-49
2022/04/20 00:56:00;;;;;;;;;;;;;;;18.05;57.89;98229.16;2086485;28;19924;-55
2022/04/20 00:57:01;;;;;;;;;;;;;;;18.04;57.74;98228.34;2084249;28;19974;-51
2022/04/20 00:58:02;;;;;;;;;;;;;;;18.03;58.10;98232.09;2082165;28;19928;-50
2022/04/20 00:59:04;;;;;;;;;;;;;;;18.05;58.14;98232.69;2087281;28;19921;-48
2022/04/20 01:00:06;;;;;;;;;;;;;;;18.04;57.63;98231.03;2088510;28;19924;-48
2022/04/20 01:01:07;;;;;;;;;;;;;;;18.03;57.78;98231.25;2089720;28;19921;-48
2022/04/20 01:02:09;;;;;;;;;;;;;;;18.04;57.85;98239.09;2088683;28;19924;-49
2022/04/20 01:03:10;;;;;;;;;;;;;;;18.03;57.89;98232.09;2085689;28;20062;-48
2022/04/20 01:04:11;;;;;;;;;;;;;;;18.02;58.01;98233.09;2087027;28;20062;-49
2022/04/20 01:05:14;;;;;;;;;;;;;;;18.02;57.92;98234.97;2089082;28;19924;-48
2022/04/20 01:06:15;;;;;;;;;;;;;;;18.02;57.90;98234.97;2086119;28;19924;-52
2022/04/20 01:07:17;;;;;;;;;;;;;;;18.02;58.07;98230.41;2090384;28;20388;-49
2022/04/20 01:08:18;;;;;;;;;;;;;;;18.05;57.79;98232.69;2087984;28;20339;-50
2022/04/20 01:09:19;;;;;;;;;;;;;;;18.03;57.96;98234.75;2086003;28;19921;-50
2022/04/20 01:10:20;;;;;;;;;;;;;;;18.03;58.17;98233.94;2090329;28;19928;-48
2022/04/20 01:11:22;;;;;;;;;;;;;;;18.04;58.13;98236.41;2091333;28;19926;-53
2022/04/20 01:12:23;;;;;;;;;;;;;;;18.04;57.90;98233.72;2088266;28;19927;-50
2022/04/20 01:13:24;;;;;;;;;;;;;;;18.03;58.00;98232.09;2084521;28;20408;-48
2022/04/20 01:14:25;;;;;;;;;;;;;;;18.02;57.63;98230.41;2085573;28;20027;-49
2022/04/20 01:15:27;;;;;;;;;;;;;;;18.02;57.92;98229.59;2084729;28;19929;-50
2022/04/20 01:16:28;;;;;;;;;;;;;;;18.04;57.82;98232.91;2084630;28;19924;-49
2022/04/20 01:17:30;;;;;;;;;;;;;;;18.03;57.94;98226.72;2086119;28;20375;-51
2022/04/20 01:18:31;;;;;;;;;;;;;;;18.02;57.91;98219.69;2092088;28;19999;-51
2022/04/20 01:19:32;;;;;;;;;;;;;;;18.01;58.11;98231.47;2087060;28;19921;-49
2022/04/20 01:20:34;;;;;;;;;;;;;;;18.01;57.74;98228.78;2084689;28;20214;-51
2022/04/20 01:21:36;;;;;;;;;;;;;;;18.00;57.97;98223.63;2086329;28;19981;-51
2022/04/20 01:22:37;;;;;;;;;;;;;;;18.00;57.81;98221.78;2087752;28;19981;-48
2022/04/20 01:23:38;;;;;;;;;;;;;;;18.00;58.17;98220.94;2087498;28;19925;-49
2022/04/20 01:24:39;;;;;;;;;;;;;;;18.00;57.81;98227.13;2089271;28;19927;-51
2022/04/20 01:25:41;;;;;;;;;;;;;;;17.99;57.86;98225.47;2086704;28;19931;-51
2022/04/20 01:26:42;;;;;;;;;;;;;;;18.00;57.78;98223.63;2086706;28;20295;-49
2022/04/20 01:27:43;;;;;;;;;;;;;;;18.00;57.98;98226.31;2085408;28;19959;-51
2022/04/20 01:28:45;;;;;;;;;;;;;;;18.00;58.01;98223.63;2083350;28;19980;-51
2022/04/20 01:29:47;;;;;;;;;;;;;;;17.99;57.92;98228.16;2083437;28;19936;-48
2022/04/20 01:30:47;;;;;;;;;;;;;;;17.99;57.71;98224.66;2087722;28;20466;-51
2022/04/20 01:31:49;;;;;;;;;;;;;;;17.99;57.69;98222.78;2083869;28;19929;-51
2022/04/20 01:32:49;;;;;;;;;;;;;;;18.00;57.80;98219.09;2085617;28;20425;-50
2022/04/20 01:33:51;;;;;;;;;;;;;;;17.98;57.90;98223.81;2086522;28;19929;-50
2022/04/20 01:34:52;;;;;;;;;;;;;;;18.01;57.89;98225.28;2087844;28;19927;-49
2022/04/20 01:35:55;;;;;;;;;;;;;;;17.98;57.92;98221.16;2085761;28;19991;-50
2022/04/20 01:36:55;;;;;;;;;;;;;;;18.00;58.17;98223.63;2085694;28;20572;-52
2022/04/20 01:37:57;;;;;;;;;;;;;;;18.00;57.72;98219.09;2084772;28;19921;-48
2022/04/20 01:38:58;;;;;;;;;;;;;;;18.00;57.90;98221.78;2089169;28;19924;-49
2022/04/20 01:39:59;;;;;;;;;;;;;;;18.01;57.87;98225.28;2087021;28;20000;-49
2022/04/20 01:41:00;;;;;;;;;;;;;;;18.00;58.15;98219.09;2085103;28;20422;-51
2022/04/20 01:42:02;;;;;;;;;;;;;;;18.00;57.86;98218.25;2088491;28;19921;-50
2022/04/20 01:43:02;;;;;;;;;;;;;;;17.99;57.76;98222.78;2085387;28;19950;-50
2022/04/20 01:44:04;;;;;;;;;;;;;;;17.99;58.14;98222.78;2083927;28;19924;-51
2022/04/20 01:45:05;;;;;;;;;;;;;;;17.98;57.96;98221.16;2086060;28;19924;-48
2022/04/20 01:46:07;;;;;;;;;;;;;;;17.97;57.85;98222.19;2086363;28;20283;-49
2022/04/20 01:47:07;;;;;;;;;;;;;;;17.96;57.98;98220.53;2086564;28;19929;-50
2022/04/20 01:48:09;;;;;;;;;;;;;;;17.97;57.89;98218.66;2087392;28;19959;-49
2022/04/20 01:49:10;;;;;;;;;;;;;;;17.96;57.93;98217.03;2086735;28;19925;-51
2022/04/20 01:50:11;;;;;;;;;;;;;;;17.97;57.94;98221.34;2086828;28;19924;-49
2022/04/20 01:52:33;;;;;;;;;;;;;;;17.98;57.93;98221.16;2091176;28;19924;-49
2022/04/20 01:53:34;;;;;;;;;;;;;;;17.97;57.83;98214.13;2088792;28;19920;-49
2022/04/20 01:54:35;;;;;;;;;;;;;;;17.97;57.93;98219.50;2086611;28;21057;-52
2022/04/20 01:55:37;;;;;;;;;;;;;;;17.96;57.85;98217.03;2090767;28;20015;-52
2022/04/20 01:56:39;;;;;;;;;;;;;;;17.97;57.67;98219.50;2088808;28;19921;-50
2022/04/20 01:57:39;;;;;;;;;;;;;;;17.94;57.80;98217.25;2088463;28;19932;-50
2022/04/20 01:58:41;;;;;;;;;;;;;;;17.96;57.95;98219.69;2088533;28;20035;-49
2022/04/20 01:59:41;;;;;;;;;;;;;;;17.96;57.95;98220.53;2085859;28;19920;-49
2022/04/20 02:00:43;;;;;;;;;;;;;;;17.96;57.92;98222.38;2089819;28;19924;-50
2022/04/20 02:03:02;;;;;;;;;;;;;;;17.94;57.86;98222.63;2088185;28;20325;-50
2022/04/20 02:04:03;;;;;;;;;;;;;;;17.93;57.90;98214.75;2086015;28;20014;-50
2022/04/20 02:05:06;;;;;;;;;;;;;;;17.94;58.02;98217.25;2088596;28;19949;-51
2022/04/20 02:06:09;;;;;;;;;;;;;;;17.94;57.82;98219.94;2088658;28;19931;-49
2022/04/20 02:07:12;;;;;;;;;;;;;;;17.93;57.79;98214.75;2088254;28;19928;-49
2022/04/20 02:08:12;;;;;;;;;;;;;;;17.94;57.94;98217.25;2087591;28;20054;-49
2022/04/20 02:09:14;;;;;;;;;;;;;;;17.93;57.69;98220.94;2088663;28;20662;-50
2022/04/20 02:10:14;;;;;;;;;;;;;;;17.93;57.76;98220.13;2090961;28;19920;-49
2022/04/20 02:11:16;;;;;;;;;;;;;;;17.94;57.91;98217.25;2089609;28;19935;-51
2022/04/20 02:12:16;;;;;;;;;;;;;;;17.96;57.86;98211.66;2088393;28;20503;-50
2022/04/20 02:13:18;;;;;;;;;;;;;;;17.95;57.96;98213.50;2083729;28;20003;-49
2022/04/20 02:14:18;;;;;;;;;;;;;;;17.94;57.88;98214.56;2090755;28;19928;-50
2022/04/20 02:15:20;;;;;;;;;;;;;;;17.94;57.83;98211.03;2088840;28;20846;-50
2022/04/20 02:16:20;;;;;;;;;;;;;;;17.95;57.85;98212.69;2087680;28;19928;-49
2022/04/20 02:17:22;;;;;;;;;;;;;;;17.96;57.85;98212.47;2091577;28;19927;-51
2022/04/20 02:18:22;;;;;;;;;;;;;;;17.96;57.87;98212.47;2090583;28;19924;-50
2022/04/20 02:19:24;;;;;;;;;;;;;;;17.94;57.85;98211.88;2089651;28;19969;-50
2022/04/20 02:20:25;;;;;;;;;;;;;;;17.94;57.83;98211.88;2089030;28;20015;-50
2022/04/20 02:21:26;;;;;;;;;;;;;;;17.95;57.86;98213.50;2089274;28;19924;-52
2022/04/20 02:22:29;;;;;;;;;;;;;;;17.94;57.63;98209.19;2088294;28;19928;-50
2022/04/20 02:23:30;;;;;;;;;;;;;;;17.94;57.60;98205.66;2085232;28;19921;-50
2022/04/20 02:24:31;;;;;;;;;;;;;;;17.92;57.92;98208.56;2084717;28;20325;-50
2022/04/20 02:25:32;;;;;;;;;;;;;;;17.93;57.89;98210.22;2089387;28;19932;-51
2022/04/20 02:26:33;;;;;;;;;;;;;;;17.90;57.71;98207.94;2088347;28;20398;-50
2022/04/20 02:27:35;;;;;;;;;;;;;;;17.91;57.79;98209.59;2088111;28;19932;-50
2022/04/20 02:28:35;;;;;;;;;;;;;;;17.92;57.88;98211.25;2084588;28;20011;-53
2022/04/20 02:29:37;;;;;;;;;;;;;;;17.92;57.86;98208.56;2088145;28;19932;-54
2022/04/20 02:30:38;;;;;;;;;;;;;;;17.92;58.07;98213.13;2088037;28;20557;-48
2022/04/20 02:31:39;;;;;;;;;;;;;;;17.92;57.89;98210.44;2088796;28;19925;-55
2022/04/20 02:32:41;;;;;;;;;;;;;;;17.92;58.00;98208.56;2088792;28;20023;-49
2022/04/20 02:33:41;;;;;;;;;;;;;;;17.91;57.71;98206.91;2090828;28;20011;-52
2022/04/20 02:34:43;;;;;;;;;;;;;;;17.91;57.87;98206.09;2091252;28;20443;-50
2022/04/20 02:35:44;;;;;;;;;;;;;;;17.91;57.74;98209.59;2090022;28;19924;-51
2022/04/20 02:36:45;;;;;;;;;;;;;;;17.89;57.89;98205.50;2089722;28;19935;-47
2022/04/20 02:37:47;;;;;;;;;;;;;;;17.89;57.82;98206.31;2088660;28;19928;-50
2022/04/20 02:38:49;;;;;;;;;;;;;;;17.89;57.75;98202.81;2093383;28;19924;-56
2022/04/20 02:39:51;;;;;;;;;;;;;;;17.89;57.76;98211.69;2090934;28;19932;-50
2022/04/20 02:40:52;;;;;;;;;;;;;;;17.88;57.76;98210.00;2093261;28;19978;-55
2022/04/20 02:41:54;;;;;;;;;;;;;;;17.90;57.91;98209.81;2093436;28;20007;-54
2022/04/20 02:42:55;;;;;;;;;;;;;;;17.89;57.64;98203.63;2089628;28;19944;-53
2022/04/20 02:43:57;;;;;;;;;;;;;;;17.90;57.93;98207.13;2086552;28;20370;-49
2022/04/20 02:44:59;;;;;;;;;;;;;;;17.90;57.73;98197.22;2090423;28;19928;-55
2022/04/20 02:45:59;;;;;;;;;;;;;;;17.91;57.87;98204.22;2088840;28;19995;-49
2022/04/20 02:47:01;;;;;;;;;;;;;;;17.90;58.01;98205.28;2088025;28;19951;-53
2022/04/20 02:48:01;;;;;;;;;;;;;;;17.85;57.74;98203.19;2091434;28;20457;-52
2022/04/20 02:49:03;;;;;;;;;;;;;;;17.91;58.03;98208.78;2092754;28;19932;-50
2022/04/20 02:50:05;;;;;;;;;;;;;;;17.89;57.97;98209.00;2092502;28;19921;-55
2022/04/20 02:51:05;;;;;;;;;;;;;;;17.88;57.64;98204.66;2092678;28;19932;-53
2022/04/20 02:52:08;;;;;;;;;;;;;;;17.88;57.76;98204.66;2093585;28;19931;-52
2022/04/20 02:53:12;;;;;;;;;;;;;;;17.88;57.80;98206.50;2090550;28;20801;-52
2022/04/20 02:54:14;;;;;;;;;;;;;;;17.87;57.81;98205.69;2087650;28;20009;-52
2022/04/20 02:55:14;;;;;;;;;;;;;;;17.88;57.84;98201.13;2086265;28;19943;-49
2022/04/20 02:56:16;;;;;;;;;;;;;;;17.86;57.88;98201.38;2089787;28;19931;-50
2022/04/20 02:57:16;;;;;;;;;;;;;;;17.88;57.80;98201.13;2093027;28;20011;-51
2022/04/20 02:58:18;;;;;;;;;;;;;;;17.86;57.74;98204.06;2089922;28;20306;-53
2022/04/20 02:59:18;;;;;;;;;;;;;;;17.87;57.77;98205.69;2089214;28;19993;-49
2022/04/20 03:00:20;;;;;;;;;;;;;;;17.86;57.84;98196.81;2085276;28;22219;-51
2022/04/20 03:01:21;;;;;;;;;;;;;;;17.87;57.76;98197.63;2091659;28;19951;-50
2022/04/20 03:02:22;;;;;;;;;;;;;;;17.86;58.01;98188.78;2092321;28;19951;-50
2022/04/20 03:03:23;;;;;;;;;;;;;;;17.85;57.89;98191.66;2087265;28;20290;-52
2022/04/20 03:04:24;;;;;;;;;;;;;;;17.85;57.85;98192.47;2088751;28;20010;-55
2022/04/20 03:05:25;;;;;;;;;;;;;;;17.86;57.76;98196.81;2089121;28;20005;-50
2022/04/20 03:06:27;;;;;;;;;;;;;;;17.85;57.81;98191.66;2092043;28;19924;-48
2022/04/20 03:07:27;;;;;;;;;;;;;;;17.85;57.86;98191.66;2093064;28;20401;-47
2022/04/20 03:08:30;;;;;;;;;;;;;;;17.88;57.89;98191.22;2089859;28;19935;-51
2022/04/20 03:09:32;;;;;;;;;;;;;;;17.86;57.85;98194.13;2091484;28;20302;-49
2022/04/20 03:10:34;;;;;;;;;;;;;;;17.88;57.89;98195.78;2089461;28;19924;-52
2022/04/20 03:11:35;;;;;;;;;;;;;;;17.87;57.60;98192.28;2092283;28;19924;-53
2022/04/20 03:12:36;;;;;;;;;;;;;;;17.87;57.76;98194.97;2090883;28;21050;-50
2022/04/20 03:13:37;;;;;;;;;;;;;;;17.86;57.93;98188.78;2086714;28;19977;-50
2022/04/20 03:14:38;;;;;;;;;;;;;;;17.88;57.93;98193.09;2085505;28;20942;-53
2022/04/20 03:15:39;;;;;;;;;;;;;;;17.87;57.81;98194.97;2092433;28;19925;-50
2022/04/20 03:16:40;;;;;;;;;;;;;;;17.85;57.61;98191.66;2093148;28;19928;-50
2022/04/20 03:17:41;;;;;;;;;;;;;;;17.85;57.83;98191.66;2080366;28;21465;-53
2022/04/20 03:18:43;;;;;;;;;;;;;;;17.83;57.78;98191.88;2089963;28;19924;-55
2022/04/20 03:19:43;;;;;;;;;;;;;;;17.84;57.69;98187.34;2088589;28;19927;-55
2022/04/20 03:20:45;;;;;;;;;;;;;;;17.84;57.83;98187.34;2093112;28;20537;-53
2022/04/20 03:21:46;;;;;;;;;;;;;;;17.84;57.88;98188.16;2091950;28;20303;-53
2022/04/20 03:22:47;;;;;;;;;;;;;;;17.84;57.90;98190.00;2089884;28;19931;-50
2022/04/20 03:23:49;;;;;;;;;;;;;;;17.84;57.85;98190.00;2087087;28;19932;-51
2022/04/20 03:24:50;;;;;;;;;;;;;;;17.85;57.63;98194.34;2091892;28;20395;-51
2022/04/20 03:25:51;;;;;;;;;;;;;;;17.83;57.81;98191.88;2091182;28;20015;-54
2022/04/20 03:26:52;;;;;;;;;;;;;;;17.84;57.74;98190.00;2089932;28;20357;-52
2022/04/20 03:27:53;;;;;;;;;;;;;;;17.83;57.78;98191.88;2084215;28;19940;-54
2022/04/20 03:28:55;;;;;;;;;;;;;;;17.84;57.53;98195.38;2088601;28;19928;-55
2022/04/20 03:29:55;;;;;;;;;;;;;;;17.84;57.69;98195.38;2089083;28;19920;-52
2022/04/20 03:30:57;;;;;;;;;;;;;;;17.83;57.69;98193.75;2092773;28;19920;-53
2022/04/20 03:31:58;;;;;;;;;;;;;;;17.83;57.77;98194.56;2093846;28;20306;-52
2022/04/20 03:32:59;;;;;;;;;;;;;;;17.83;57.89;98194.56;2089937;28;20014;-50
2022/04/20 03:34:00;;;;;;;;;;;;;;;17.84;57.80;98198.06;2091211;28;20003;-52
2022/04/20 03:35:02;;;;;;;;;;;;;;;17.82;57.97;98198.25;2088456;28;20334;-53
2022/04/20 03:36:04;;;;;;;;;;;;;;;17.83;57.72;98196.41;2090614;28;19928;-48
2022/04/20 03:37:06;;;;;;;;;;;;;;;17.84;57.80;98201.56;2092286;28;20380;-48
2022/04/20 03:38:07;;;;;;;;;;;;;;;17.83;57.77;98193.75;2089350;28;20001;-49
2022/04/20 03:39:09;;;;;;;;;;;;;;;17.82;57.67;98194.75;2087512;28;19944;-54
2022/04/20 03:40:10;;;;;;;;;;;;;;;17.83;57.74;98193.75;2078233;28;20011;-50
2022/04/20 03:41:12;;;;;;;;;;;;;;;17.81;57.60;98195.81;2088456;28;19924;-55
2022/04/20 03:42:14;;;;;;;;;;;;;;;17.81;57.81;98196.63;2090936;28;19966;-50
2022/04/20 03:43:15;;;;;;;;;;;;;;;17.81;57.78;98191.25;2086891;28;20398;-50
2022/04/20 03:44:16;;;;;;;;;;;;;;;17.81;57.83;98195.81;2085706;28;19924;-50
2022/04/20 03:45:17;;;;;;;;;;;;;;;17.81;57.67;98185.06;2089326;28;19990;-52
2022/04/20 03:46:18;;;;;;;;;;;;;;;17.79;57.72;98195.19;2088880;28;20014;-51
2022/04/20 03:47:20;;;;;;;;;;;;;;;17.78;57.92;98186.31;2091977;28;19950;-53
2022/04/20 03:48:20;;;;;;;;;;;;;;;17.79;57.94;98192.50;2089090;28;19935;-51
2022/04/20 03:49:22;;;;;;;;;;;;;;;17.80;57.66;98199.50;2087599;28;19924;-51
2022/04/20 03:50:22;;;;;;;;;;;;;;;17.81;57.78;98198.47;2087876;28;19924;-51
2022/04/20 03:51:24;;;;;;;;;;;;;;;17.80;57.89;98200.34;2089441;28;20447;-50
2022/04/20 03:52:25;;;;;;;;;;;;;;;17.79;57.92;98197.84;2091182;28;19927;-49
2022/04/20 03:53:26;;;;;;;;;;;;;;;17.80;57.58;98200.34;2087667;28;19920;-51
2022/04/20 03:54:28;;;;;;;;;;;;;;;17.81;57.95;98203.84;2090623;28;19925;-50
2022/04/20 03:55:30;;;;;;;;;;;;;;;17.79;57.89;98198.69;2090154;28;20831;-51
2022/04/20 03:57:03;;;;;;;;;;;;;;;17.81;57.89;98203.84;2087520;28;20438;-52
2022/04/20 03:57:52;;;;;;;;;;;;;;;17.80;57.84;98200.34;2089498;28;20015;-53
2022/04/20 03:58:53;;;;;;;;;;;;;;;17.80;57.83;98197.66;2086175;28;19955;-48
2022/04/20 03:59:54;;;;;;;;;;;;;;;17.81;57.71;98198.47;2088299;28;19936;-49
2022/04/20 04:00:56;;;;;;;;;;;;;;;17.81;57.63;98198.47;2087889;28;19920;-49
2022/04/20 04:01:56;;;;;;;;;;;;;;;17.79;57.84;98198.69;2085072;28;19933;-52
2022/04/20 04:02:58;;;;;;;;;;;;;;;17.80;57.81;98205.72;2079394;28;19928;-50
2022/04/20 04:03:58;;;;;;;;;;;;;;;17.80;57.91;98205.72;2084593;28;19925;-49
2022/04/20 04:05:00;;;;;;;;;;;;;;;17.79;57.69;98203.22;2085369;28;19967;-52
2022/04/20 04:06:00;;;;;;;;;;;;;;;17.78;57.81;98209.59;2088821;28;20436;-54
2022/04/20 04:07:02;;;;;;;;;;;;;;;17.77;57.89;98203.38;2089553;28;19921;-52
2022/04/20 04:08:04;;;;;;;;;;;;;;;17.78;57.91;98206.91;2089811;28;19972;-48
2022/04/20 04:09:04;;;;;;;;;;;;;;;17.80;57.62;98205.72;2085168;28;19935;-57
2022/04/20 04:10:08;;;;;;;;;;;;;;;17.77;57.83;98210.63;2089604;28;19924;-53
2022/04/20 04:11:09;;;;;;;;;;;;;;;17.77;57.84;98215.97;2082192;28;19935;-53
2022/04/20 04:12:10;;;;;;;;;;;;;;;17.77;57.69;98215.97;2084528;28;19924;-52
2022/04/20 04:13:11;;;;;;;;;;;;;;;17.77;57.96;98213.28;2084160;28;19927;-50
2022/04/20 04:14:13;;;;;;;;;;;;;;;17.78;57.73;98217.66;2086623;28;19925;-49
2022/04/20 04:15:14;;;;;;;;;;;;;;;17.79;57.74;98216.63;2083989;28;20490;-53
2022/04/20 04:16:15;;;;;;;;;;;;;;;17.76;57.61;98215.16;2084037;28;19924;-50
2022/04/20 04:17:16;;;;;;;;;;;;;;;17.77;57.96;98210.63;2083918;28;19924;-50
2022/04/20 04:18:18;;;;;;;;;;;;;;;17.77;57.83;98214.13;2089173;28;20550;-52
2022/04/20 04:19:19;;;;;;;;;;;;;;;17.78;57.84;98217.66;2087999;28;19928;-49
2022/04/20 04:20:21;;;;;;;;;;;;;;;17.78;57.79;98212.28;2087680;28;19936;-55
2022/04/20 04:21:21;;;;;;;;;;;;;;;17.79;57.65;98219.31;2090288;28;19924;-53
2022/04/20 04:22:23;;;;;;;;;;;;;;;17.78;57.67;98223.00;2086054;28;20408;-49
2022/04/20 04:23:23;;;;;;;;;;;;;;;17.77;57.63;98210.63;2086492;28;20558;-49
2022/04/20 04:24:39;;;;;;;;;;;;;;;17.78;57.93;98217.66;2086495;28;19927;-48
2022/04/20 04:25:41;;;;;;;;;;;;;;;17.78;57.60;98214.97;2085949;28;19921;-50
2022/04/20 04:26:45;;;;;;;;;;;;;;;17.75;57.60;98213.53;2087929;28;19927;-47
2022/04/20 04:27:47;;;;;;;;;;;;;;;17.76;57.93;98219.72;2081234;28;20020;-51
2022/04/20 04:28:47;;;;;;;;;;;;;;;17.76;57.74;98223.22;2087861;28;20023;-49
2022/04/20 04:29:49;;;;;;;;;;;;;;;17.77;57.86;98226.72;2088559;28;19927;-52
2022/04/20 04:30:49;;;;;;;;;;;;;;;17.77;57.86;98224.03;2090991;28;19928;-49
2022/04/20 04:31:51;;;;;;;;;;;;;;;17.78;57.70;98225.69;2084570;28;19924;-51
2022/04/20 04:32:53;;;;;;;;;;;;;;;17.74;57.82;98219.09;2087228;28;19974;-51
2022/04/20 04:33:54;;;;;;;;;;;;;;;17.75;57.86;98218.06;2083255;28;19924;-49
2022/04/20 04:34:55;;;;;;;;;;;;;;;17.78;57.74;98220.34;2089096;28;20413;-48
2022/04/20 04:35:56;;;;;;;;;;;;;;;17.76;57.66;98228.56;2087250;28;19931;-49
2022/04/20 04:36:57;;;;;;;;;;;;;;;17.75;57.75;98226.13;2085719;28;20391;-49
2022/04/20 04:37:59;;;;;;;;;;;;;;;17.74;57.96;98229.81;2087403;28;19933;-48
2022/04/20 04:39:00;;;;;;;;;;;;;;;17.74;57.65;98233.31;2083620;28;20403;-48
2022/04/20 04:40:01;;;;;;;;;;;;;;;17.74;57.77;98232.50;2090264;28;19931;-48
2022/04/20 04:41:04;;;;;;;;;;;;;;;17.73;57.73;98229.00;2089150;28;20374;-51
2022/04/20 04:42:06;;;;;;;;;;;;;;;17.72;57.71;98229.19;2081893;28;19976;-47
2022/04/20 04:43:07;;;;;;;;;;;;;;;17.73;57.78;98228.16;2087770;28;19966;-51
2022/04/20 04:44:08;;;;;;;;;;;;;;;17.73;57.81;98236.22;2083300;28;19925;-51
2022/04/20 04:49:15;;;;;;;;;;;;;;;17.74;57.93;98240.53;2088178;28;19924;-49
2022/04/20 04:50:17;;;;;;;;;;;;;;;17.72;57.56;98240.75;2089146;28;19920;-49
2022/04/20 04:51:17;;;;;;;;;;;;;;;17.72;57.60;98239.91;2087763;28;20953;-49
2022/04/20 04:52:19;;;;;;;;;;;;;;;17.72;57.77;98239.91;2087164;28;19931;-49
2022/04/20 04:53:19;;;;;;;;;;;;;;;17.72;57.89;98246.13;2086008;28;19925;-51
2022/04/20 04:54:21;;;;;;;;;;;;;;;17.71;57.92;98241.78;2084008;28;20652;-48
2022/04/20 04:55:21;;;;;;;;;;;;;;;17.72;57.77;98245.28;2090190;28;20035;-48
2022/04/20 04:56:24;;;;;;;;;;;;;;;17.71;57.89;98249.00;2090323;28;19920;-50
2022/04/20 04:57:25;;;;;;;;;;;;;;;17.69;57.99;98243.88;2087590;28;20440;-47
2022/04/20 04:58:26;;;;;;;;;;;;;;;17.69;57.70;98245.69;2086562;28;19927;-50
2022/04/20 04:59:28;;;;;;;;;;;;;;;17.71;57.79;98252.50;2086470;28;20653;-46
2022/04/20 05:00:30;;;;;;;;;;;;;;;17.71;57.71;98249.00;2087898;28;19967;-48
2022/04/20 05:01:30;;;;;;;;;;;;;;;17.71;57.72;98257.88;2087543;28;19925;-50
2022/04/20 05:02:32;;;;;;;;;;;;;;;17.71;57.77;98254.38;2090873;28;20559;-51
2022/04/20 05:03:32;;;;;;;;;;;;;;;17.70;57.81;98250.88;2085405;28;20504;-48
2022/04/20 05:04:35;;;;;;;;;;;;;;;17.70;57.69;98250.03;2091427;28;19932;-54
2022/04/20 05:05:35;;;;;;;;;;;;;;;17.70;57.75;98255.41;2090090;28;19921;-52
2022/04/20 05:06:37;;;;;;;;;;;;;;;17.70;57.69;98252.72;2084307;28;19979;-51
2022/04/20 05:07:39;;;;;;;;;;;;;;;17.70;57.78;98252.72;2086705;28;19931;-54
2022/04/20 05:08:39;;;;;;;;;;;;;;;17.69;58.05;98251.06;2091181;28;20561;-50
2022/04/20 05:09:41;;;;;;;;;;;;;;;17.70;57.65;98258.91;2088044;28;19928;-52
2022/04/20 05:10:41;;;;;;;;;;;;;;;17.69;57.82;98257.28;2091156;28;19981;-51
2022/04/20 05:11:44;;;;;;;;;;;;;;;17.70;57.79;98258.09;2089386;28;20433;-54
2022/04/20 05:12:45;;;;;;;;;;;;;;;17.70;57.88;98266.13;2083951;28;20023;-51
2022/04/20 05:13:46;;;;;;;;;;;;;;;17.68;57.58;98258.28;2083866;28;19935;-53
2022/04/20 05:14:48;;;;;;;;;;;;;;;17.68;58.01;98260.97;2087606;28;21879;-50
2022/04/20 05:15:49;;;;;;;;;;;;;;;17.69;57.97;98267.16;2089914;28;19920;-55
2022/04/20 05:16:50;;;;;;;;;;;;;;;17.68;57.71;98260.97;2090647;28;19924;-51
2022/04/20 05:17:51;;;;;;;;;;;;;;;17.69;57.95;98261.78;2087578;28;19924;-52
2022/04/20 05:18:52;;;;;;;;;;;;;;;17.67;57.59;98262.00;2090985;28;19921;-49
2022/04/20 05:19:54;;;;;;;;;;;;;;;17.68;57.83;98260.16;2087401;28;19978;-54
2022/04/20 05:20:55;;;;;;;;;;;;;;;17.67;57.85;98262.00;2086788;28;19920;-53
2022/04/20 05:21:57;;;;;;;;;;;;;;;17.65;57.86;98267.56;2084566;28;19925;-53
2022/04/20 05:22:57;;;;;;;;;;;;;;;17.68;57.79;98262.84;2089933;28;19924;-53
2022/04/20 05:23:59;;;;;;;;;;;;;;;17.67;57.96;98270.06;2090060;28;20762;-51
2022/04/20 05:25:00;;;;;;;;;;;;;;;17.68;57.92;98262.84;2091225;28;19932;-52
2022/04/20 05:26:01;;;;;;;;;;;;;;;17.68;57.93;98270.88;2082291;28;19958;-51
2022/04/20 05:27:04;;;;;;;;;;;;;;;17.67;57.74;98266.56;2084504;28;19951;-50